Time;durP1;ratioP1;P1;durP2;ratioP2;P2;SDS_P1;SDS_P2;PMS_P1;PMS_P2;Temp;Humidity;BMP_temperature;BMP_pressure;BME280_temperature;BME280_humidity;BME280_pressure;Samples;Min_cycle;Max_cycle;Signal;HPM_P1;HPM_P2
2023/12/28 00:00:50;;;;;;;4.23;1.73;;;;;;;9.90;42.24;148624.25;5021292;28;20330;-52
2023/12/28 00:03:16;;;;;;;2.63;1.50;;;;;;;9.85;43.29;148610.56;5024270;28;20239;-52
2023/12/28 00:05:44;;;;;;;2.93;1.50;;;;;;;9.77;43.17;148590.66;5021037;28;20216;-52
2023/12/28 00:08:11;;;;;;;3.23;1.47;;;;;;;9.60;43.85;148550.81;5024223;28;20612;-52
2023/12/28 00:10:38;;;;;;;2.33;1.40;;;;;;;9.88;43.49;148619.25;5020714;28;20245;-55
2023/12/28 00:13:04;;;;;;;2.27;1.50;;;;;;;10.05;42.17;148659.09;5024276;28;20313;-55
2023/12/28 00:15:31;;;;;;;5.77;1.67;;;;;;;10.23;41.25;148701.44;5021525;28;20667;-54
2023/12/28 00:17:57;;;;;;;2.80;1.50;;;;;;;10.09;41.49;148669.06;5024379;28;20231;-54
2023/12/28 00:20:24;;;;;;;2.63;1.53;;;;;;;10.06;41.91;148660.38;5022797;28;20244;-54
2023/12/28 00:22:52;;;;;;;5.67;1.77;;;;;;;9.90;43.14;148624.25;5002748;28;20592;-55
2023/12/28 00:25:18;;;;;;;3.40;1.90;;;;;;;10.15;41.75;148684.00;5023207;28;20220;-55
2023/12/28 00:27:46;;;;;;;2.60;1.30;;;;;;;10.38;41.72;148737.53;5020436;28;20220;-53
2023/12/28 00:30:14;;;;;;;2.77;1.97;;;;;;;10.39;41.06;148741.34;5007892;28;20220;-55
2023/12/28 00:32:43;;;;;;;3.07;1.53;;;;;;;10.51;40.29;148768.75;5003234;28;20250;-53
2023/12/28 00:35:09;;;;;;;2.67;1.60;;;;;;;10.43;39.67;148751.31;5024334;28;20232;-52
2023/12/28 00:37:36;;;;;;;2.20;1.50;;;;;;;10.63;39.59;148798.59;5020152;28;20612;-54
2023/12/28 00:40:05;;;;;;;2.40;1.60;;;;;;;10.74;39.44;148826.00;5024167;28;20238;-55
2023/12/28 00:42:32;;;;;;;2.13;1.40;;;;;;;10.79;38.38;148837.22;5018156;28;20577;-52
2023/12/28 00:44:59;;;;;;;2.23;1.30;;;;;;;10.46;40.04;148758.78;5017470;28;20577;-52
2023/12/28 00:47:25;;;;;;;2.17;1.50;;;;;;;10.57;39.47;148783.69;5004019;28;20233;-53
2023/12/28 00:49:52;;;;;;;3.80;1.50;;;;;;;10.66;39.08;148806.06;5019721;28;20241;-55
2023/12/28 00:52:19;;;;;;;2.50;1.47;;;;;;;10.74;38.77;148826.00;5021394;28;20236;-53
2023/12/28 00:54:46;;;;;;;4.43;1.80;;;;;;;10.73;38.54;148822.28;5003046;28;20244;-52
2023/12/28 00:57:14;;;;;;;2.50;1.40;;;;;;;10.55;41.51;148779.94;5023833;28;20728;-53
2023/12/28 00:59:41;;;;;;;3.13;1.60;;;;;;;10.49;39.91;148764.97;5018884;28;20221;-54
2023/12/28 01:02:08;;;;;;;2.97;1.60;;;;;;;10.33;41.02;148726.34;5007665;28;20234;-52
2023/12/28 01:04:35;;;;;;;2.83;1.60;;;;;;;10.18;40.39;148691.47;5002764;28;20216;-53
2023/12/28 01:07:05;;;;;;;3.43;1.57;;;;;;;10.27;41.06;148711.41;5024494;28;20243;-52
2023/12/28 01:09:34;;;;;;;4.30;1.57;;;;;;;10.25;40.85;148706.44;5006900;28;20236;-53
2023/12/28 01:12:01;;;;;;;2.80;1.73;;;;;;;10.24;41.79;148705.16;5025246;28;20229;-52
2023/12/28 01:14:29;;;;;;;2.77;1.60;;;;;;;9.95;43.71;148635.47;5024389;28;20233;-51
2023/12/28 01:16:56;;;;;;;2.77;1.30;;;;;;;9.85;42.42;148611.78;5008937;28;20253;-55
2023/12/28 01:19:23;;;;;;;1.87;1.33;;;;;;;10.11;40.78;148674.03;5008631;28;20236;-55
2023/12/28 01:21:49;;;;;;;2.43;1.47;;;;;;;10.20;39.85;148695.19;5003765;28;20636;-52
2023/12/28 01:24:16;;;;;;;3.08;1.65;;;;;;;10.04;40.82;148656.63;5023560;28;20430;-52
2023/12/28 01:26:43;;;;;;;2.43;1.67;;;;;;;10.09;40.61;148667.81;5001975;28;20221;-51
2023/12/28 01:29:09;;;;;;;2.10;1.40;;;;;;;9.92;40.54;148628.00;5008369;28;20233;-53
2023/12/28 01:31:38;;;;;;;2.10;1.50;;;;;;;10.36;38.37;148732.56;5005769;28;20224;-54
2023/12/28 01:34:05;;;;;;;2.77;1.53;;;;;;;10.66;37.59;148806.06;5026542;28;20235;-52
2023/12/28 01:36:33;;;;;;;2.30;1.50;;;;;;;10.67;38.83;148807.34;5022739;28;20283;-52
2023/12/28 01:39:01;;;;;;;3.00;1.60;;;;;;;10.91;38.47;148865.84;5024827;28;20316;-54
2023/12/28 01:41:27;;;;;;;3.20;1.40;;;;;;;10.88;38.02;148859.66;5007826;28;20701;-52
2023/12/28 01:43:54;;;;;;;3.33;1.53;;;;;;;10.81;39.43;148840.94;5026348;28;20228;-53
2023/12/28 01:46:22;;;;;;;5.07;1.73;;;;;;;10.83;38.82;148845.94;5025952;28;20244;-51
2023/12/28 01:48:51;;;;;;;2.20;1.40;;;;;;;10.70;39.78;148816.03;5005872;28;20249;-52
2023/12/28 01:51:21;;;;;;;2.50;1.43;;;;;;;11.16;37.21;148925.66;5003588;28;20268;-51
2023/12/28 01:53:49;;;;;;;3.33;1.43;;;;;;;11.25;37.00;148948.09;5001017;28;20232;-52
2023/12/28 01:56:18;;;;;;;2.97;1.53;;;;;;;11.12;37.63;148915.69;5025997;28;20723;-53
2023/12/28 01:58:45;;;;;;;1.77;1.47;;;;;;;11.00;38.67;148888.28;5005811;28;20585;-52
2023/12/28 02:01:12;;;;;;;2.70;1.40;;;;;;;10.77;40.60;148832.25;5024397;28;20235;-52
2023/12/28 02:03:39;;;;;;;3.30;1.87;;;;;;;11.04;37.60;148898.25;5023264;28;20219;-54
2023/12/28 02:06:08;;;;;;;3.33;1.90;;;;;;;11.03;37.62;148895.75;5008576;28;20701;-53
2023/12/28 02:08:35;;;;;;;2.23;1.50;;;;;;;11.17;39.50;148929.38;5005767;28;20274;-52
2023/12/28 02:11:01;;;;;;;3.23;1.30;;;;;;;11.14;39.02;148920.69;5026140;28;20759;-52
2023/12/28 02:13:29;;;;;;;4.13;1.47;;;;;;;11.11;37.96;148914.47;5005729;28;20704;-54
2023/12/28 02:16:01;;;;;;;2.73;1.70;;;;;;;11.34;36.61;148970.53;5007891;28;20230;-54
2023/12/28 02:18:38;;;;;;;2.87;1.63;;;;;;;11.36;38.63;148975.50;5004277;28;20228;-54
2023/12/28 02:21:07;;;;;;;4.47;2.10;;;;;;;11.26;38.70;148950.59;5007298;28;20245;-54
2023/12/28 02:23:34;;;;;;;2.40;1.43;;;;;;;11.17;39.23;148928.16;5022054;28;20610;-53
2023/12/28 02:26:02;;;;;;;3.90;1.90;;;;;;;11.21;39.11;148938.13;5008933;28;20240;-54
2023/12/28 02:28:28;;;;;;;1.90;1.50;;;;;;;11.25;39.52;148946.81;5022827;28;20241;-53
2023/12/28 02:30:55;;;;;;;2.83;1.70;;;;;;;11.33;38.78;148968.03;5023969;28;20234;-54
2023/12/28 02:33:30;;;;;;;2.63;1.60;;;;;;;11.40;38.80;148982.97;5018685;28;20556;-54
2023/12/28 02:36:02;;;;;;;4.53;1.57;;;;;;;11.34;37.85;148969.25;5004991;28;20237;-53
2023/12/28 02:38:30;;;;;;;2.17;1.40;;;;;;;11.28;39.54;148954.31;5021958;28;20240;-53
2023/12/28 02:40:58;;;;;;;2.33;1.50;;;;;;;11.53;38.71;149015.38;5025023;28;20234;-53
2023/12/28 02:43:26;;;;;;;3.33;2.00;;;;;;;11.69;37.56;149054.00;5005856;28;20221;-53
2023/12/28 02:45:53;;;;;;;4.07;1.87;;;;;;;11.47;40.88;149001.66;5003324;28;20223;-54
2023/12/28 02:48:19;;;;;;;2.80;1.90;;;;;;;11.56;36.89;149022.88;5015808;28;20326;-52
2023/12/28 02:50:46;;;;;;;2.90;1.50;;;;;;;11.51;37.39;149011.63;5005487;28;22399;-52
2023/12/28 02:53:13;;;;;;;2.93;1.83;;;;;;;11.58;38.37;149026.59;5006601;28;20237;-54
2023/12/28 02:55:40;;;;;;;2.87;1.70;;;;;;;11.54;38.43;149016.63;5003299;28;20215;-54
2023/12/28 02:58:06;;;;;;;2.97;1.80;;;;;;;11.57;37.48;149025.34;5006930;28;20244;-51
2023/12/28 03:00:34;;;;;;;3.57;1.50;;;;;;;11.70;38.44;149055.22;5021708;28;20247;-52
2023/12/28 03:03:01;;;;;;;2.03;1.30;;;;;;;11.64;39.66;149042.81;5006802;28;20236;-52
2023/12/28 03:05:28;;;;;;;2.93;1.50;;;;;;;11.73;39.00;149063.97;5020349;28;20256;-52
2023/12/28 03:07:55;;;;;;;3.60;1.40;;;;;;;11.69;39.78;149052.75;5007288;28;20240;-52
2023/12/28 03:10:22;;;;;;;2.77;1.73;;;;;;;11.70;39.17;149056.50;5023625;28;20270;-53
2023/12/28 03:12:48;;;;;;;2.20;1.23;;;;;;;11.83;38.84;149087.63;5018773;28;20249;-54
2023/12/28 03:15:17;;;;;;;3.53;1.70;;;;;;;11.91;38.93;149106.34;5007218;28;20245;-52
2023/12/28 03:17:45;;;;;;;2.20;1.20;;;;;;;12.06;38.69;149143.81;5022557;28;20900;-54
2023/12/28 03:20:12;;;;;;;2.70;1.40;;;;;;;12.29;37.56;149197.41;5023750;28;20248;-51
2023/12/28 03:22:39;;;;;;;3.40;1.50;;;;;;;12.20;37.17;149177.44;5021192;28;20653;-55
2023/12/28 03:25:06;;;;;;;3.97;1.70;;;;;;;12.18;37.82;149171.25;5006853;28;20245;-53
2023/12/28 03:27:33;;;;;;;1.70;1.10;;;;;;;12.07;38.89;149146.31;5020641;28;20576;-54
2023/12/28 03:29:59;;;;;;;2.10;1.30;;;;;;;12.08;38.66;149147.53;5007199;28;20245;-52
2023/12/28 03:32:26;;;;;;;3.20;1.60;;;;;;;12.10;39.31;149152.50;5024219;28;20241;-53
2023/12/28 03:34:54;;;;;;;2.47;1.60;;;;;;;12.05;38.47;149141.31;5003895;28;20237;-52
2023/12/28 03:37:20;;;;;;;1.97;1.30;;;;;;;12.04;39.96;149138.81;5006491;28;20245;-52
2023/12/28 03:39:47;;;;;;;2.20;1.50;;;;;;;11.99;40.69;149125.03;5022171;28;20226;-55
2023/12/28 03:42:14;;;;;;;3.30;1.40;;;;;;;11.92;41.15;149110.09;5005206;28;20233;-51
2023/12/28 03:44:41;;;;;;;3.20;1.70;;;;;;;11.99;40.98;149126.31;5021541;28;20230;-54
2023/12/28 03:47:08;;;;;;;3.27;1.33;;;;;;;11.99;41.45;149126.31;5023554;28;20224;-55
2023/12/28 03:49:35;;;;;;;1.70;1.10;;;;;;;11.89;41.84;149101.38;5003332;28;20735;-54
2023/12/28 03:52:03;;;;;;;3.07;1.37;;;;;;;11.97;42.11;149121.31;5022576;28;20262;-53
2023/12/28 03:54:29;;;;;;;2.33;1.40;;;;;;;11.86;43.47;149093.91;5019597;28;20636;-55
2023/12/28 03:56:57;;;;;;;3.23;1.53;;;;;;;11.91;43.10;149106.34;4948694;28;20244;-55
2023/12/28 03:59:23;;;;;;;3.33;1.60;;;;;;;11.88;44.51;149100.09;5014644;28;20238;-55
2023/12/28 04:01:50;;;;;;;3.27;1.40;;;;;;;11.93;44.12;149112.56;5006632;28;20234;-52
2023/12/28 04:04:17;;;;;;;3.10;1.70;;;;;;;11.92;46.02;149110.09;5022734;28;20241;-54
2023/12/28 04:06:44;;;;;;;2.53;1.57;;;;;;;11.88;47.25;149098.88;5021015;28;20217;-53
2023/12/28 04:09:14;;;;;;;2.83;1.37;;;;;;;11.85;47.30;149092.63;5006071;28;20231;-53
2023/12/28 04:11:40;;;;;;;3.83;1.27;;;;;;;11.84;47.30;149088.91;5020783;28;20225;-52
2023/12/28 04:14:07;;;;;;;2.60;1.30;;;;;;;11.84;48.35;149090.13;5006193;28;20236;-52
2023/12/28 04:16:34;;;;;;;1.80;1.20;;;;;;;11.82;48.82;149085.16;5003573;28;20226;-53
2023/12/28 04:19:00;;;;;;;2.53;1.20;;;;;;;11.74;49.65;149066.47;5004615;28;20243;-52
2023/12/28 04:21:27;;;;;;;1.50;1.10;;;;;;;11.77;49.65;149073.94;5003126;28;20245;-54
2023/12/28 04:23:54;;;;;;;1.67;1.20;;;;;;;11.87;51.09;149097.59;5006394;28;20433;-54
2023/12/28 04:26:22;;;;;;;1.70;1.27;;;;;;;11.87;51.18;149097.59;5005092;28;20473;-55
2023/12/28 04:28:48;;;;;;;1.97;1.23;;;;;;;11.82;52.38;149085.16;5021028;28;20230;-53
2023/12/28 04:31:15;;;;;;;2.63;1.27;;;;;;;11.86;51.37;149093.91;5262587;23;20383;-60
2023/12/28 04:33:42;;;;;;;2.53;1.33;;;;;;;11.89;51.55;149101.38;4960835;28;20234;-61
2023/12/28 04:36:09;;;;;;;1.67;1.10;;;;;;;11.83;53.32;149087.63;4961037;28;20695;-61
2023/12/28 04:38:36;;;;;;;3.50;1.33;;;;;;;11.77;54.36;149072.69;4959510;28;20232;-61
2023/12/28 04:41:03;;;;;;;2.07;1.10;;;;;;;11.78;53.45;149075.16;4960678;28;20236;-61
2023/12/28 04:43:31;;;;;;;4.73;1.40;;;;;;;11.67;55.39;149049.03;4943230;28;20550;-61
2023/12/28 04:45:58;;;;;;;2.97;1.20;;;;;;;11.74;53.74;149066.47;4961658;28;20247;-61
2023/12/28 04:48:27;;;;;;;2.50;1.30;;;;;;;11.64;55.23;149042.81;4945467;28;20242;-61
2023/12/28 04:50:53;;;;;;;3.80;1.43;;;;;;;11.64;55.16;149041.53;4950079;28;20314;-61
2023/12/28 04:53:20;;;;;;;4.37;1.20;;;;;;;11.71;54.50;149059.00;4952516;28;20240;-61
2023/12/28 04:55:47;;;;;;;2.67;1.50;;;;;;;11.75;54.63;149068.97;4948055;28;20247;-61
2023/12/28 04:58:14;;;;;;;2.27;1.37;;;;;;;11.78;53.95;149075.16;4947346;28;20223;-61
2023/12/28 05:00:42;;;;;;;4.43;1.70;;;;;;;11.65;54.60;149045.31;4948612;28;20240;-61
2023/12/28 05:03:08;;;;;;;3.00;1.20;;;;;;;11.63;55.29;149039.03;4964681;28;20236;-61
2023/12/28 05:05:35;;;;;;;1.77;1.20;;;;;;;11.63;54.37;149039.03;4946562;28;20219;-62
2023/12/28 05:08:02;;;;;;;3.40;1.60;;;;;;;11.72;55.00;149061.47;4964789;28;20264;-62
2023/12/28 05:10:28;;;;;;;2.40;1.33;;;;;;;11.62;54.98;149037.81;4946876;28;20227;-62
2023/12/28 05:12:55;;;;;;;3.37;1.20;;;;;;;11.60;56.84;149032.84;4965679;28;20241;-62
2023/12/28 05:15:22;;;;;;;4.07;1.40;;;;;;;11.59;55.77;149029.06;4945787;28;20239;-62
2023/12/28 05:17:50;;;;;;;1.73;1.20;;;;;;;11.69;55.34;149052.75;4962690;28;20601;-62
2023/12/28 05:20:18;;;;;;;1.87;1.13;;;;;;;11.71;53.85;149057.72;4955904;28;20266;-62
2023/12/28 05:22:44;;;;;;;2.80;1.30;;;;;;;11.60;54.36;149032.84;4963015;28;20230;-62
2023/12/28 05:25:11;;;;;;;3.63;1.57;;;;;;;11.58;55.21;149027.84;4964608;28;20236;-62
2023/12/28 05:27:37;;;;;;;1.33;1.00;;;;;;;11.60;56.04;149031.56;4962401;28;20224;-62
2023/12/28 05:30:05;;;;;;;2.67;1.40;;;;;;;11.59;54.31;149029.06;4962885;28;20247;-62
2023/12/28 05:32:32;;;;;;;3.57;1.40;;;;;;;11.56;54.02;149022.88;4963383;28;20611;-62
2023/12/28 05:34:59;;;;;;;2.33;1.40;;;;;;;11.50;55.03;149009.13;4963956;28;20243;-62
2023/12/28 05:37:26;;;;;;;2.67;1.37;;;;;;;11.53;54.54;149015.38;4960822;28;20567;-62
2023/12/28 05:39:53;;;;;;;2.50;1.40;;;;;;;11.49;55.07;149006.63;4965580;28;20235;-62
2023/12/28 05:42:19;;;;;;;2.70;1.37;;;;;;;11.45;54.19;148996.66;4965514;28;20247;-62
2023/12/28 05:44:46;;;;;;;2.10;1.23;;;;;;;11.45;53.83;148996.66;4962395;28;20639;-62
2023/12/28 05:47:13;;;;;;;2.60;1.37;;;;;;;11.43;55.34;148990.47;4964148;28;20223;-62
2023/12/28 05:49:39;;;;;;;2.10;1.30;;;;;;;11.49;54.06;149005.41;4964732;28;20235;-62
2023/12/28 05:52:07;;;;;;;2.73;1.40;;;;;;;11.37;54.77;148978.00;4966550;28;20235;-62
2023/12/28 05:54:35;;;;;;;2.87;1.50;;;;;;;11.32;55.41;148965.53;4960580;28;21794;-62
2023/12/28 05:57:01;;;;;;;3.83;1.47;;;;;;;11.36;55.16;148975.50;4966350;28;20229;-61
2023/12/28 05:59:28;;;;;;;2.90;1.27;;;;;;;11.36;56.46;148974.25;4963213;28;20240;-61
2023/12/28 06:01:55;;;;;;;1.87;1.50;;;;;;;11.40;56.46;148982.97;4965016;28;20263;-61
2023/12/28 06:04:21;;;;;;;3.20;1.43;;;;;;;11.34;56.96;148969.25;4966963;28;20703;-61
2023/12/28 06:06:48;;;;;;;4.23;1.60;;;;;;;11.41;57.02;148986.69;4962165;28;20273;-61
2023/12/28 06:09:16;;;;;;;2.30;1.30;;;;;;;11.31;56.75;148963.06;4949445;28;20268;-62
2023/12/28 06:11:43;;;;;;;3.40;1.93;;;;;;;11.36;56.38;148974.25;4961988;28;20319;-62
2023/12/28 06:14:12;;;;;;;5.07;1.30;;;;;;;11.31;57.08;148961.78;4957963;28;20319;-62
2023/12/28 06:16:39;;;;;;;3.10;1.50;;;;;;;11.38;54.63;148979.22;4950564;28;20232;-62
2023/12/28 06:19:06;;;;;;;5.20;2.00;;;;;;;11.38;54.57;148979.22;4954560;28;20332;-62
2023/12/28 06:21:36;;;;;;;3.90;2.00;;;;;;;11.21;53.84;148939.34;4946601;28;20695;-63
2023/12/28 06:24:03;;;;;;;3.55;1.83;;;;;;;11.05;54.71;148899.53;4947582;28;20444;-63
2023/12/28 06:26:33;;;;;;;4.73;2.20;;;;;;;10.87;56.32;148855.88;4956469;28;20224;-62
2023/12/28 06:28:59;;;;;;;3.47;1.93;;;;;;;10.74;56.13;148826.00;4964568;28;20530;-62
2023/12/28 06:31:26;;;;;;;3.47;1.77;;;;;;;10.69;57.06;148813.53;4962716;28;20259;-62
2023/12/28 06:33:52;;;;;;;3.03;1.90;;;;;;;10.61;56.91;148794.88;4958614;28;20259;-62
2023/12/28 06:36:19;;;;;;;3.73;1.73;;;;;;;10.62;56.98;148797.38;4962830;28;20270;-62
2023/12/28 06:38:46;;;;;;;3.63;1.60;;;;;;;10.76;56.59;148829.75;4954419;28;20230;-63
2023/12/28 06:41:13;;;;;;;4.53;1.93;;;;;;;10.77;57.02;148832.25;4963779;28;20235;-62
2023/12/28 06:43:41;;;;;;;3.60;1.70;;;;;;;10.69;57.29;148812.31;4960588;28;20318;-63
2023/12/28 06:46:08;;;;;;;5.80;2.30;;;;;;;10.61;57.79;148793.59;4964822;28;20536;-62
2023/12/28 06:48:34;;;;;;;4.93;2.67;;;;;;;10.45;58.83;148755.03;4959133;28;20235;-63
2023/12/28 06:51:02;;;;;;;4.00;2.23;;;;;;;10.39;59.73;148741.34;4962507;28;20239;-62
2023/12/28 06:53:28;;;;;;;5.13;2.47;;;;;;;10.25;59.45;148707.66;4959762;28;20255;-63
2023/12/28 06:55:55;;;;;;;3.77;1.93;;;;;;;10.46;57.19;148757.50;4966320;28;20231;-62
2023/12/28 06:58:22;;;;;;;4.30;1.80;;;;;;;10.56;56.92;148782.41;4959032;28;20232;-62
2023/12/28 07:00:50;;;;;;;4.67;2.10;;;;;;;10.65;56.71;148802.34;4949902;28;20319;-62
2023/12/28 07:03:19;;;;;;;3.83;2.00;;;;;;;10.63;56.22;148799.84;4954579;28;20447;-61
2023/12/28 07:05:45;;;;;;;4.33;2.93;;;;;;;10.59;57.77;148789.91;4960010;28;20475;-61
2023/12/28 07:08:12;;;;;;;4.13;3.73;;;;;;;10.54;58.59;148777.44;4953863;28;20705;-61
2023/12/28 07:10:39;;;;;;;3.10;1.80;;;;;;;10.57;57.95;148784.91;4957524;28;20234;-62
2023/12/28 07:13:06;;;;;;;3.20;2.10;;;;;;;10.63;57.69;148798.59;4963363;28;20320;-62
2023/12/28 07:15:32;;;;;;;2.77;1.83;;;;;;;10.62;56.92;148796.09;4960259;28;20229;-62
2023/12/28 07:18:00;;;;;;;4.17;1.60;;;;;;;10.74;57.23;148824.78;4962611;28;20240;-62
2023/12/28 07:20:27;;;;;;;3.20;1.90;;;;;;;10.66;58.60;148806.06;4953191;28;20228;-61
2023/12/28 07:22:54;;;;;;;4.53;2.53;;;;;;;10.60;56.92;148791.16;4963294;28;20243;-61
2023/12/28 07:25:21;;;;;;;7.10;1.90;;;;;;;10.70;56.74;148814.81;4962708;28;20254;-61
2023/12/28 07:27:47;;;;;;;6.40;2.60;;;;;;;10.68;56.81;148811.03;4960908;28;20244;-61
2023/12/28 07:30:16;;;;;;;8.07;3.30;;;;;;;10.57;57.44;148783.69;4961234;28;20255;-61
2023/12/28 07:32:43;;;;;;;4.40;2.77;;;;;;;10.47;58.61;148761.28;4960400;28;20318;-61
2023/12/28 07:35:11;;;;;;;8.03;3.03;;;;;;;10.46;58.44;148757.50;4963971;28;20701;-61
2023/12/28 07:37:38;;;;;;;4.33;2.90;;;;;;;10.28;58.68;148715.13;4959194;28;20774;-60
2023/12/28 07:40:06;;;;;;;5.80;2.87;;;;;;;10.22;61.12;148700.19;4946057;28;20239;-60
2023/12/28 07:42:32;;;;;;;7.83;4.63;;;;;;;10.16;61.51;148686.50;4954312;28;20251;-60
2023/12/28 07:44:59;;;;;;;91.77;56.47;;;;;;;10.02;64.18;148651.63;4959497;28;20246;-60
2023/12/28 07:47:26;;;;;;;8.20;5.50;;;;;;;9.94;68.93;148631.72;4956720;28;20728;-60
2023/12/28 07:49:53;;;;;;;12.77;6.33;;;;;;;9.82;68.77;148604.31;4958922;28;20233;-61
2023/12/28 07:52:21;;;;;;;10.00;5.10;;;;;;;9.73;73.05;148581.91;4962241;28;20636;-61
2023/12/28 07:54:48;;;;;;;9.83;6.03;;;;;;;9.68;72.08;148569.47;4956759;28;20234;-61
2023/12/28 07:57:14;;;;;;;8.83;4.93;;;;;;;9.67;72.93;148568.25;4962391;28;20244;-61
2023/12/28 07:59:41;;;;;;;3.43;2.33;;;;;;;9.59;78.99;148549.56;4960881;28;20316;-61
2023/12/28 08:02:08;;;;;;;6.10;4.50;;;;;;;9.56;82.07;148540.88;4961107;28;20255;-61
2023/12/28 08:04:35;;;;;;;4.97;2.90;;;;;;;9.45;80.27;148515.97;4960091;28;20240;-61
2023/12/28 08:07:01;;;;;;;3.37;2.43;;;;;;;9.40;81.50;148502.31;4963420;28;20236;-61
2023/12/28 08:09:29;;;;;;;6.03;4.00;;;;;;;9.34;81.27;148487.38;4959022;28;20247;-61
2023/12/28 08:11:56;;;;;;;6.70;2.73;;;;;;;9.35;78.28;148489.84;4960868;28;20252;-61
2023/12/28 08:14:23;;;;;;;5.33;3.73;;;;;;;9.35;80.76;148489.84;4954595;28;20232;-61
2023/12/28 08:16:52;;;;;;;7.03;4.30;;;;;;;9.26;82.43;148469.94;4964258;28;20243;-61
2023/12/28 08:19:19;;;;;;;9.13;3.87;;;;;;;9.20;80.31;148453.75;4965213;28;20266;-61
2023/12/28 08:21:45;;;;;;;4.53;2.90;;;;;;;9.19;76.32;148451.25;4959871;28;20222;-61
2023/12/28 08:24:12;;;;;;;4.67;2.40;;;;;;;9.39;70.70;148499.81;4968349;28;20281;-61
2023/12/28 08:26:40;;;;;;;5.60;2.80;;;;;;;9.44;77.13;148512.25;4962008;28;20227;-61
2023/12/28 08:29:07;;;;;;;3.90;2.47;;;;;;;9.45;72.68;148514.75;4965210;28;20237;-61
2023/12/28 08:31:34;;;;;;;5.00;2.60;;;;;;;9.36;79.82;148492.34;4964012;28;20717;-61
2023/12/28 08:34:00;;;;;;;5.97;3.97;;;;;;;9.32;85.02;148482.38;4965948;28;20242;-61
2023/12/28 08:36:27;;;;;;;4.90;2.57;;;;;;;9.14;89.63;148441.28;4963780;28;20241;-61
2023/12/28 08:38:53;;;;;;;5.67;3.10;;;;;;;9.00;95.36;148406.50;4967536;28;20327;-61
2023/12/28 08:41:20;;;;;;;5.97;3.30;;;;;;;8.94;95.41;148391.56;4967163;28;20243;-61
2023/12/28 08:43:48;;;;;;;6.03;2.73;;;;;;;8.92;87.30;148386.59;4949061;28;20342;-61
2023/12/28 08:46:15;;;;;;;5.20;3.60;;;;;;;8.96;89.88;148396.53;4966062;28;20244;-62
2023/12/28 08:48:42;;;;;;;6.10;2.90;;;;;;;8.95;92.48;148395.28;4961631;28;20235;-62
2023/12/28 08:51:10;;;;;;;6.57;3.80;;;;;;;9.03;91.56;148412.69;4964697;28;20607;-61
2023/12/28 08:53:37;;;;;;;18.83;11.67;;;;;;;8.99;89.35;148405.25;4963049;28;20233;-61
2023/12/28 08:56:13;;;;;;;9.03;5.60;;;;;;;9.00;90.00;148406.50;4966473;28;20235;-60
2023/12/28 08:58:39;;;;;;;21.97;13.13;;;;;;;8.94;92.29;148391.56;4962535;28;20221;-61
2023/12/28 09:01:07;;;;;;;7.77;6.03;;;;;;;8.91;92.86;148385.31;4966389;28;20247;-61
2023/12/28 09:03:34;;;;;;;4.43;3.03;;;;;;;8.98;87.76;148402.75;4947670;28;21133;-61
2023/12/28 09:06:01;;;;;;;5.93;2.87;;;;;;;9.10;83.18;148430.13;4967177;28;20238;-61
2023/12/28 09:08:27;;;;;;;41.67;22.33;;;;;;;9.11;83.54;148433.81;4964483;28;20257;-61
2023/12/28 09:10:54;;;;;;;6.10;2.40;;;;;;;9.22;80.50;148460.00;4965241;28;20234;-61
2023/12/28 09:13:20;;;;;;;6.70;4.03;;;;;;;9.19;81.17;148452.53;4963073;28;20714;-61
2023/12/28 09:15:47;;;;;;;5.87;3.43;;;;;;;9.28;80.70;148473.66;4963007;28;20246;-62
2023/12/28 09:18:15;;;;;;;6.27;4.23;;;;;;;9.35;79.68;148489.84;4965132;28;20231;-62
2023/12/28 09:20:42;;;;;;;5.57;1.87;;;;;;;9.49;78.75;148523.44;4963821;28;20241;-62
2023/12/28 09:23:09;;;;;;;6.73;3.57;;;;;;;9.62;77.93;148555.81;4965240;28;20225;-62
2023/12/28 09:25:38;;;;;;;8.40;5.23;;;;;;;9.58;80.20;148545.84;4956595;28;20292;-62
2023/12/28 09:28:05;;;;;;;5.67;2.67;;;;;;;9.66;76.37;148564.50;4965475;28;20320;-61
2023/12/28 09:30:32;;;;;;;3.50;2.20;;;;;;;9.82;78.21;148603.09;4962156;28;20241;-61
2023/12/28 09:32:58;;;;;;;4.23;2.00;;;;;;;9.83;76.61;148606.81;4965852;28;20243;-61
2023/12/28 09:35:26;;;;;;;5.43;3.20;;;;;;;9.83;79.81;148605.59;4965265;28;20728;-61
2023/12/28 09:37:54;;;;;;;3.80;2.40;;;;;;;9.91;78.64;148625.50;4964218;28;20847;-61
2023/12/28 09:40:20;;;;;;;3.67;1.40;;;;;;;9.99;79.48;148645.44;4966696;28;20323;-61
2023/12/28 09:42:54;;;;;;;3.33;1.50;;;;;;;10.00;80.03;148646.66;4953849;28;20242;-61
2023/12/28 09:45:21;;;;;;;4.70;2.30;;;;;;;10.01;81.78;148649.16;4966091;28;20228;-61
2023/12/28 09:47:50;;;;;;;2.07;1.53;;;;;;;10.00;82.57;148647.94;4961302;28;20278;-61
2023/12/28 09:50:19;;;;;;;2.80;1.70;;;;;;;10.12;79.62;148675.28;4958346;28;20224;-61
2023/12/28 09:52:47;;;;;;;4.23;2.43;;;;;;;10.13;80.22;148679.03;4959539;28;20229;-61
2023/12/28 09:55:13;;;;;;;5.90;2.90;;;;;;;10.11;81.69;148674.03;4957031;28;20241;-61
2023/12/28 09:57:41;;;;;;;137.63;36.13;;;;;;;10.16;81.56;148686.50;4959804;28;20734;-61
2023/12/28 10:00:11;;;;;;;5.67;3.23;;;;;;;10.12;84.37;148675.28;4958894;28;20594;-61
2023/12/28 10:02:44;;;;;;;2.97;1.77;;;;;;;10.17;84.60;148687.72;4957936;28;20233;-61
2023/12/28 10:05:13;;;;;;;2.53;1.60;;;;;;;10.23;85.65;148702.66;4965431;28;20225;-60
2023/12/28 10:07:42;;;;;;;2.47;1.80;;;;;;;10.23;85.28;148702.66;4955183;28;20228;-60
2023/12/28 10:10:10;;;;;;;1.93;1.30;;;;;;;10.36;86.25;148732.56;4961736;28;20239;-61
2023/12/28 10:12:37;;;;;;;3.67;1.60;;;;;;;10.29;86.96;148717.59;4961007;28;20239;-60
2023/12/28 10:15:05;;;;;;;3.80;1.67;;;;;;;10.37;87.40;148735.03;4963022;28;20237;-61
2023/12/28 10:17:34;;;;;;;2.57;1.40;;;;;;;10.36;88.26;148732.56;4963866;28;20228;-61
2023/12/28 10:20:04;;;;;;;4.30;2.07;;;;;;;10.25;90.75;148707.66;4964219;28;20331;-61
2023/12/28 10:22:31;;;;;;;2.07;1.67;;;;;;;10.27;89.11;148712.63;4946573;28;20595;-61
2023/12/28 10:24:59;;;;;;;3.57;2.20;;;;;;;10.30;92.05;148720.09;4965576;28;20573;-61
2023/12/28 10:27:27;;;;;;;3.17;1.93;;;;;;;10.19;94.76;148693.97;4959904;28;20242;-61
2023/12/28 10:29:55;;;;;;;4.73;2.60;;;;;;;10.17;89.90;148689.00;4958759;28;20670;-61
2023/12/28 10:32:22;;;;;;;3.43;1.40;;;;;;;10.11;95.12;148672.78;4961588;28;20268;-61
2023/12/28 10:34:49;;;;;;;2.23;1.27;;;;;;;10.08;94.15;148666.59;4962259;28;20293;-61
2023/12/28 10:37:19;;;;;;;2.00;1.57;;;;;;;10.04;94.74;148656.63;4965519;28;20236;-61
2023/12/28 10:39:49;;;;;;;2.40;1.73;;;;;;;10.01;92.08;148649.16;4958888;28;20240;-61
2023/12/28 10:42:28;;;;;;;2.73;1.90;;;;;;;10.07;90.49;148664.09;4965529;28;20251;-61
2023/12/28 10:45:02;;;;;;;2.80;1.70;;;;;;;10.00;93.65;148647.94;4962847;28;20712;-61
2023/12/28 10:47:33;;;;;;;3.43;2.47;;;;;;;9.88;94.63;148618.03;4960576;28;20239;-61
2023/12/28 10:50:04;;;;;;;4.83;3.70;;;;;;;9.83;95.05;148606.81;4946349;28;20241;-61
2023/12/28 10:52:32;;;;;;;4.70;2.47;;;;;;;9.84;94.50;148609.31;4961435;28;20239;-61
2023/12/28 10:55:18;;;;;;;4.40;2.60;;;;;;;9.82;96.11;148604.31;4963458;28;20233;-61
2023/12/28 10:57:59;;;;;;;6.13;3.17;;;;;;;9.77;94.25;148590.66;4960768;28;20719;-61
2023/12/28 11:00:33;;;;;;;5.80;1.93;;;;;;;9.81;93.03;148600.63;4963240;28;20230;-61
2023/12/28 11:03:04;;;;;;;5.53;3.33;;;;;;;9.85;91.89;148611.78;4945912;28;20260;-61
2023/12/28 11:05:33;;;;;;;5.00;3.17;;;;;;;9.82;95.55;148604.31;4961415;28;20225;-61
2023/12/28 11:08:00;;;;;;;3.23;1.97;;;;;;;9.85;94.36;148610.56;4961848;28;20247;-61
2023/12/28 11:10:30;;;;;;;6.03;2.90;;;;;;;9.85;94.13;148611.78;4962487;28;20250;-61
2023/12/28 11:12:58;;;;;;;1.67;1.20;;;;;;;9.94;90.52;148631.72;4951689;28;20238;-61
2023/12/28 11:15:25;;;;;;;10.70;3.83;;;;;;;10.00;89.05;148647.94;4961832;28;20239;-61
2023/12/28 11:17:53;;;;;;;15.77;7.13;;;;;;;10.07;87.41;148664.09;4959228;28;21018;-61
2023/12/28 11:20:21;;;;;;;10.20;4.87;;;;;;;10.11;88.19;148674.03;4963238;28;20315;-61
2023/12/28 11:22:49;;;;;;;40.63;14.77;;;;;;;10.05;87.89;148659.09;4959869;28;20239;-61
2023/12/28 11:25:16;;;;;;;8.13;3.80;;;;;;;10.10;90.02;148671.56;4962615;28;20321;-61
2023/12/28 11:27:43;;;;;;;9.07;3.93;;;;;;;10.15;89.47;148682.75;4960237;28;20221;-61